createdAt,value
2018-10-18T00:00:52.440Z,9.30
2018-10-18T00:05:33.160Z,9.20
2018-10-18T00:10:13.039Z,9.20
2018-10-18T00:14:54.365Z,9.20
2018-10-18T00:19:35.645Z,9.10
2018-10-18T00:24:15.570Z,9.10
2018-10-18T00:28:55.707Z,9.10
2018-10-18T00:33:35.609Z,9.10
2018-10-18T00:38:15.644Z,9.00
2018-10-18T00:42:55.621Z,8.90
2018-10-18T00:47:35.866Z,8.90
2018-10-18T00:52:16.728Z,8.90
2018-10-18T00:56:56.759Z,8.80
2018-10-18T01:01:36.671Z,8.80
2018-10-18T01:06:16.964Z,8.80
2018-10-18T01:10:57.962Z,8.70
2018-10-18T01:15:39.274Z,8.70
2018-10-18T01:20:20.944Z,8.70
2018-10-18T01:25:00.633Z,8.70
2018-10-18T01:29:41.201Z,8.60
2018-10-18T01:34:21.125Z,8.60
2018-10-18T01:39:02.064Z,8.60
2018-10-18T01:43:43.467Z,8.50
2018-10-18T01:48:23.457Z,8.50
2018-10-18T01:53:03.704Z,8.40
2018-10-18T01:57:44.228Z,8.40
2018-10-18T02:02:23.976Z,8.40
2018-10-18T02:07:03.896Z,8.30
2018-10-18T02:11:43.852Z,8.30
2018-10-18T02:16:23.796Z,8.30
2018-10-18T02:21:04.272Z,8.30
2018-10-18T02:25:45.436Z,8.30
2018-10-18T02:30:25.220Z,8.30
2018-10-18T02:35:06.183Z,8.20
2018-10-18T02:39:46.093Z,8.20
2018-10-18T02:44:25.830Z,8.10
2018-10-18T02:49:07.629Z,8.10
2018-10-18T02:53:47.456Z,8.00
2018-10-18T02:58:27.489Z,8.00
2018-10-18T03:03:07.771Z,8.00
2018-10-18T03:07:48.350Z,7.90
2018-10-18T03:12:28.057Z,7.90
2018-10-18T03:17:08.523Z,8.00
2018-10-18T03:21:48.380Z,8.00
2018-10-18T03:26:28.173Z,8.00
2018-10-18T03:31:09.204Z,8.00
2018-10-18T03:35:49.773Z,8.00
2018-10-18T03:40:29.928Z,8.00
2018-10-18T03:45:09.850Z,8.00
2018-10-18T03:49:50.224Z,8.00
2018-10-18T03:54:30.034Z,8.00
2018-10-18T03:59:09.819Z,7.90
2018-10-18T04:03:49.672Z,7.80
2018-10-18T04:08:29.469Z,7.80
2018-10-18T04:13:09.477Z,7.80
2018-10-18T04:17:49.473Z,7.80
2018-10-18T04:22:29.320Z,7.80
2018-10-18T04:27:09.257Z,7.70
2018-10-18T04:31:49.255Z,7.70
2018-10-18T04:36:29.072Z,7.70
2018-10-18T04:41:08.825Z,7.60
2018-10-18T04:45:49.452Z,7.50
2018-10-18T04:50:29.521Z,7.50
2018-10-18T04:55:10.132Z,7.40
2018-10-18T04:59:50.007Z,7.40
2018-10-18T05:04:31.373Z,7.40
2018-10-18T05:09:13.076Z,7.40
2018-10-18T05:13:54.798Z,7.40
2018-10-18T05:18:34.416Z,7.40
2018-10-18T05:23:14.429Z,7.40
2018-10-18T05:27:54.831Z,7.30
2018-10-18T05:32:35.397Z,7.30
2018-10-18T05:37:15.483Z,7.30
2018-10-18T05:41:56.007Z,7.30
2018-10-18T05:46:36.608Z,7.20
2018-10-18T05:51:16.960Z,7.20
2018-10-18T05:55:57.657Z,7.20
2018-10-18T06:00:37.590Z,7.20
2018-10-18T06:05:18.308Z,7.20
2018-10-18T06:09:58.280Z,7.20
2018-10-18T06:14:38.232Z,7.30
2018-10-18T06:19:18.139Z,7.30
2018-10-18T06:23:58.139Z,7.30
2018-10-18T06:28:38.020Z,7.40
2018-10-18T06:33:18.023Z,7.40
2018-10-18T06:37:57.932Z,7.60
2018-10-18T06:42:38.108Z,7.70
2018-10-18T06:47:17.906Z,8.10
2018-10-18T06:51:57.733Z,8.80
2018-10-18T06:56:37.708Z,9.60
2018-10-18T07:01:17.524Z,10.50
2018-10-18T07:05:57.569Z,11.40
2018-10-18T07:10:37.534Z,12.00
2018-10-18T07:15:17.416Z,12.80
2018-10-18T07:19:57.356Z,13.60
2018-10-18T07:24:37.217Z,13.90
2018-10-18T07:29:17.084Z,14.30
2018-10-18T07:33:56.952Z,15.30
2018-10-18T07:38:36.987Z,16.40
2018-10-18T07:43:17.045Z,17.30
2018-10-18T07:47:56.841Z,17.80
2018-10-18T07:52:37.298Z,18.50
2018-10-18T07:57:17.306Z,19.20
2018-10-18T08:01:57.307Z,20.00
2018-10-18T08:06:37.307Z,20.80
2018-10-18T08:11:17.212Z,21.40
2018-10-18T08:15:57.102Z,22.00
2018-10-18T08:20:36.951Z,22.40
2018-10-18T08:25:16.866Z,22.90
2018-10-18T08:29:56.648Z,23.70
2018-10-18T08:34:36.384Z,24.20
2018-10-18T08:39:16.506Z,25.10
2018-10-18T08:43:58.355Z,25.70
2018-10-18T08:48:38.217Z,26.20
2018-10-18T08:53:18.160Z,26.90
2018-10-18T08:57:58.125Z,28.10
2018-10-18T09:02:38.164Z,29.20
2018-10-18T09:07:18.111Z,30.50
2018-10-18T09:11:57.940Z,31.30
2018-10-18T09:16:38.125Z,32.20
2018-10-18T09:21:18.279Z,31.90
2018-10-18T09:25:58.609Z,32.30
2018-10-18T09:30:40.634Z,32.60
2018-10-18T09:35:20.676Z,32.30
2018-10-18T09:40:01.220Z,31.60
2018-10-18T09:44:41.916Z,31.90
2018-10-18T09:49:22.012Z,32.30
2018-10-18T09:54:03.463Z,32.50
2018-10-18T09:58:43.700Z,32.80
2018-10-18T10:03:23.725Z,33.10
2018-10-18T10:08:03.573Z,32.70
2018-10-18T10:12:43.510Z,32.70
2018-10-18T10:17:23.280Z,33.20
2018-10-18T10:22:03.148Z,33.70
2018-10-18T10:26:43.207Z,34.40
2018-10-18T10:31:22.944Z,34.00
2018-10-18T10:36:02.936Z,32.80
2018-10-18T10:40:42.707Z,31.10
2018-10-18T10:45:22.853Z,29.80
2018-10-18T10:50:02.965Z,29.50
2018-10-18T10:54:43.121Z,29.50
2018-10-18T10:59:23.408Z,29.60
2018-10-18T11:04:03.683Z,29.60
2018-10-18T11:08:43.890Z,29.90
2018-10-18T11:13:24.108Z,30.50
2018-10-18T11:18:04.245Z,30.90
2018-10-18T11:22:44.642Z,30.50
2018-10-18T11:27:24.424Z,29.70
2018-10-18T11:32:04.526Z,28.70
2018-10-18T11:36:44.392Z,28.80
2018-10-18T11:41:24.301Z,28.90
2018-10-18T11:46:04.475Z,28.70
2018-10-18T11:50:44.685Z,29.90
2018-10-18T11:55:24.543Z,30.80
2018-10-18T12:00:05.481Z,30.80
2018-10-18T12:04:45.408Z,30.10
2018-10-18T12:09:25.323Z,29.40
2018-10-18T12:14:06.226Z,29.00
2018-10-18T12:18:46.056Z,27.00
2018-10-18T12:23:26.722Z,25.30
2018-10-18T12:28:06.652Z,23.80
2018-10-18T12:32:46.460Z,23.00
2018-10-18T12:37:26.324Z,22.60
2018-10-18T12:42:06.440Z,22.30
2018-10-18T12:46:46.332Z,22.00
2018-10-18T12:51:26.256Z,21.70
2018-10-18T12:56:06.376Z,21.60
2018-10-18T13:00:46.408Z,21.50
2018-10-18T13:05:26.461Z,21.30
2018-10-18T13:10:07.780Z,21.30
2018-10-18T13:14:47.585Z,21.20
2018-10-18T13:19:27.480Z,21.20
2018-10-18T13:24:07.292Z,21.20
2018-10-18T13:28:47.195Z,21.10
2018-10-18T13:33:27.080Z,21.00
2018-10-18T13:38:07.032Z,21.00
2018-10-18T13:42:46.860Z,21.00
2018-10-18T13:47:26.779Z,21.00
2018-10-18T13:52:06.611Z,20.90
2018-10-18T13:56:46.712Z,20.90
2018-10-18T14:01:27.339Z,21.00
2018-10-18T14:06:07.580Z,20.90
2018-10-18T14:10:47.570Z,20.90
2018-10-18T14:15:27.535Z,20.90
2018-10-18T14:20:07.999Z,20.80
2018-10-18T14:24:47.816Z,20.70
2018-10-18T14:29:27.705Z,20.70
2018-10-18T14:34:08.107Z,20.60
2018-10-18T14:38:48.033Z,20.60
2018-10-18T14:43:28.128Z,20.60
2018-10-18T14:48:08.125Z,20.60
2018-10-18T14:52:48.407Z,20.60
2018-10-18T14:57:28.300Z,20.60
2018-10-18T15:02:08.436Z,20.50
2018-10-18T15:06:48.385Z,20.60
2018-10-18T15:11:28.365Z,20.50
2018-10-18T15:16:08.590Z,20.50
2018-10-18T15:20:48.909Z,20.40
2018-10-18T15:25:29.178Z,20.30
2018-10-18T15:30:09.906Z,20.30
2018-10-18T15:34:49.907Z,20.20
2018-10-18T15:39:29.916Z,20.00
2018-10-18T15:44:10.565Z,19.80
2018-10-18T15:48:50.530Z,19.60
2018-10-18T15:53:30.552Z,19.30
2018-10-18T15:58:10.650Z,19.00
2018-10-18T16:02:50.523Z,18.70
2018-10-18T16:07:30.515Z,18.40
2018-10-18T16:12:10.352Z,18.20
2018-10-18T16:16:50.179Z,18.00
2018-10-18T16:21:30.241Z,17.80
2018-10-18T16:26:10.401Z,17.70
2018-10-18T16:30:50.237Z,17.50
2018-10-18T16:35:30.064Z,17.30
2018-10-18T16:40:10.064Z,17.20
2018-10-18T16:44:50.096Z,17.10
2018-10-18T16:49:29.973Z,17.10
2018-10-18T16:54:09.940Z,17.00
2018-10-18T16:58:49.844Z,16.80
2018-10-18T17:03:29.616Z,16.60
2018-10-18T17:08:09.341Z,16.50
2018-10-18T17:12:49.172Z,16.40
2018-10-18T17:17:29.086Z,16.30
2018-10-18T17:22:08.824Z,16.20
2018-10-18T17:26:48.673Z,16.10
2018-10-18T17:31:28.454Z,16.00
2018-10-18T17:36:08.403Z,15.90
2018-10-18T17:40:48.210Z,15.80
2018-10-18T17:45:28.148Z,15.70
2018-10-18T17:50:08.598Z,15.60
2018-10-18T17:54:48.357Z,15.60
2018-10-18T17:59:28.693Z,15.50
2018-10-18T18:04:08.671Z,15.40
2018-10-18T18:08:48.563Z,15.30
2018-10-18T18:13:28.548Z,15.30
2018-10-18T18:18:08.528Z,15.20
2018-10-18T18:22:48.368Z,15.10
2018-10-18T18:27:28.262Z,15.00
2018-10-18T18:32:08.120Z,15.00
2018-10-18T18:36:47.860Z,14.90
2018-10-18T18:41:27.768Z,14.80
2018-10-18T18:46:07.981Z,14.70
2018-10-18T18:50:47.877Z,14.70
2018-10-18T18:55:27.788Z,14.60
2018-10-18T19:00:09.181Z,14.50
2018-10-18T19:04:49.163Z,14.40
2018-10-18T19:09:28.901Z,14.40
2018-10-18T19:14:09.272Z,14.30
2018-10-18T19:18:49.352Z,14.20
2018-10-18T19:23:29.252Z,14.10
2018-10-18T19:28:09.260Z,14.00
2018-10-18T19:32:49.476Z,13.90
2018-10-18T19:37:29.382Z,13.70
2018-10-18T19:42:09.222Z,13.60
2018-10-18T19:46:49.124Z,13.60
2018-10-18T19:51:29.041Z,13.40
2018-10-18T19:56:08.997Z,13.30
2018-10-18T20:00:48.855Z,13.10
2018-10-18T20:05:28.741Z,12.90
2018-10-18T20:10:09.021Z,12.80
2018-10-18T20:14:51.918Z,12.70
2018-10-18T20:19:34.002Z,12.50
2018-10-18T20:24:14.166Z,12.40
2018-10-18T20:28:53.873Z,12.30
2018-10-18T20:33:37.436Z,12.20
2018-10-18T20:38:17.369Z,12.10
2018-10-18T20:42:57.252Z,12.00
2018-10-18T20:47:37.275Z,11.80
2018-10-18T20:52:19.568Z,11.80
2018-10-18T20:56:59.599Z,11.80
2018-10-18T21:01:39.245Z,11.80
2018-10-18T21:06:19.129Z,11.80
2018-10-18T21:10:58.923Z,11.80
2018-10-18T21:15:38.799Z,11.70
2018-10-18T21:20:18.587Z,11.70
2018-10-18T21:24:58.494Z,11.70
2018-10-18T21:29:38.432Z,11.60
2018-10-18T21:34:18.679Z,11.40
2018-10-18T21:38:58.606Z,11.20
2018-10-18T21:43:38.568Z,11.10
2018-10-18T21:48:19.589Z,11.20
2018-10-18T21:52:59.537Z,11.20
2018-10-18T21:57:39.284Z,11.10
2018-10-18T22:02:19.239Z,11.00
2018-10-18T22:06:59.080Z,11.00
2018-10-18T22:11:39.076Z,11.00
2018-10-18T22:16:19.015Z,10.90
2018-10-18T22:20:58.844Z,10.90
2018-10-18T22:25:38.819Z,10.80
2018-10-18T22:30:18.557Z,10.70
2018-10-18T22:34:58.560Z,10.70
2018-10-18T22:39:38.291Z,10.60
2018-10-18T22:44:18.233Z,10.50
2018-10-18T22:48:57.964Z,10.60
2018-10-18T22:53:37.936Z,10.50
2018-10-18T22:58:17.652Z,10.40
2018-10-18T23:02:57.512Z,10.30
2018-10-18T23:07:37.217Z,10.20
2018-10-18T23:12:17.235Z,10.20
2018-10-18T23:16:57.297Z,10.10
2018-10-18T23:21:37.176Z,10.00
2018-10-18T23:26:17.053Z,10.00
2018-10-18T23:30:56.792Z,9.90
2018-10-18T23:35:36.636Z,9.90
2018-10-18T23:40:16.523Z,9.80
2018-10-18T23:44:56.305Z,9.80
2018-10-18T23:49:36.192Z,9.70
2018-10-18T23:54:16.260Z,9.60
2018-10-18T23:58:56.271Z,9.50
